AK17 weather

Glacierview Strip
Homer, Alaska, United States

Public forecast

Using degrees Fahrenheit for public forecast. Weather courtesy of forecast.io.

METAR (pilot weather report)

Closest report is Homer Airport, 10.5 nm (19.4 km) SW. Retrieved 2019/07/17 16:53 UTC (53 minutes ago):

PAHO 171653Z 05004KT 10SM CLR 13/12 A2965 RMK AO2 SLP039 T01280117

TAF (pilot weather forecast)

Closest forecast is Homer Airport, 10.5 nm (19.4 km) SW. Retrieved 2019/07/17 12:45 UTC (5 hours ago):

TAF PAHO 171141Z 1712/1812 VRB05KT P6SM SCT080 BKN120 FM172000 25011KT P6SM FEW070 BKN200 FM180600 VRB05KT P6SM SCT070 BKN200